Time;durP1;ratioP1;P1;durP2;ratioP2;P2;SDS_P1;SDS_P2;PMS_P1;PMS_P2;Temp;Humidity;BMP_temperature;BMP_pressure;BME280_temperature;BME280_humidity;BME280_pressure;Samples;Min_cycle;Max_cycle;Signal;HPM_P1;HPM_P2
2022/11/11 00:00:06;;;;;;;12.25;5.05;;;;;;;;;;6302254;22;20006;-87
2022/11/11 00:02:32;;;;;;;11.75;5.53;;;;;;;;;;6302065;22;20431;-87
2022/11/11 00:04:58;;;;;;;14.27;5.85;;;;;;;;;;6302083;22;19999;-87
2022/11/11 00:07:24;;;;;;;10.73;5.40;;;;;;;;;;6302315;22;20033;-86
2022/11/11 00:09:50;;;;;;;15.00;6.15;;;;;;;;;;6302252;22;20389;-87
2022/11/11 00:12:16;;;;;;;13.23;5.05;;;;;;;;;;6303285;22;20094;-87
2022/11/11 00:14:42;;;;;;;9.93;5.25;;;;;;;;;;6275741;22;20011;-87
2022/11/11 00:25:26;;;;;;;13.73;5.45;;;;;;;;;;6301661;22;20532;-86
2022/11/11 00:27:52;;;;;;;10.63;5.63;;;;;;;;;;6301954;22;20006;-87
2022/11/11 00:30:18;;;;;;;18.17;6.25;;;;;;;;;;6302035;22;20003;-86
2022/11/11 00:32:44;;;;;;;14.63;6.25;;;;;;;;;;6302950;22;20019;-86
2022/11/11 00:37:55;;;;;;;14.52;6.28;;;;;;;;;;6301961;22;20010;-87
2022/11/11 00:40:21;;;;;;;11.65;6.00;;;;;;;;;;6301456;22;20053;-87
2022/11/11 00:42:47;;;;;;;12.60;6.13;;;;;;;;;;6302473;22;19999;-86
2022/11/11 00:45:13;;;;;;;10.77;5.82;;;;;;;;;;6303074;22;20006;-86
2022/11/11 00:53:11;;;;;;;11.63;6.60;;;;;;;;;;6301637;22;20018;-86
2022/11/11 00:55:38;;;;;;;13.48;6.80;;;;;;;;;;6301641;22;20014;-86
2022/11/11 00:58:03;;;;;;;13.00;7.20;;;;;;;;;;6301677;22;20003;-86
2022/11/11 01:00:30;;;;;;;15.45;7.78;;;;;;;;;;6301396;22;20003;-87
2022/11/11 01:02:57;;;;;;;15.90;7.38;;;;;;;;;;6274278;22;20446;-86
2022/11/11 01:05:23;;;;;;;13.15;7.65;;;;;;;;;;6273781;22;20485;-86
2022/11/11 01:07:49;;;;;;;13.40;8.02;;;;;;;;;;6274732;22;20038;-88
2022/11/11 01:10:36;;;;;;;13.18;8.10;;;;;;;;;;6302767;22;19996;-86
2022/11/11 01:13:10;;;;;;;17.67;7.93;;;;;;;;;;6301215;22;20038;-87
2022/11/11 01:15:36;;;;;;;10.02;7.97;;;;;;;;;;6273836;22;20007;-87
2022/11/11 01:18:03;;;;;;;10.60;8.38;;;;;;;;;;6301910;22;19995;-87
2022/11/11 01:20:29;;;;;;;29.42;9.40;;;;;;;;;;6274103;22;20010;-87
2022/11/11 01:22:55;;;;;;;18.27;8.02;;;;;;;;;;6274258;22;20010;-86
2022/11/11 01:25:21;;;;;;;15.15;8.20;;;;;;;;;;6273860;22;20093;-87
2022/11/11 01:27:47;;;;;;;12.32;8.00;;;;;;;;;;6301932;22;19999;-86
2022/11/11 01:30:13;;;;;;;31.08;8.32;;;;;;;;;;6302531;22;20069;-87
2022/11/11 01:32:40;;;;;;;9.75;7.70;;;;;;;;;;6301234;22;20031;-86
2022/11/11 01:35:06;;;;;;;9.38;7.38;;;;;;;;;;6274269;22;20003;-86
2022/11/11 01:37:33;;;;;;;13.02;8.00;;;;;;;;;;6301083;22;20002;-86
2022/11/11 01:39:59;;;;;;;12.65;8.10;;;;;;;;;;6274160;22;20440;-86
2022/11/11 01:42:25;;;;;;;13.48;8.25;;;;;;;;;;6301051;22;20027;-87
2022/11/11 01:44:51;;;;;;;13.10;8.48;;;;;;;;;;6301403;22;19995;-87
2022/11/11 01:47:18;;;;;;;15.45;8.63;;;;;;;;;;6273850;22;20415;-85
2022/11/11 01:49:49;;;;;;;97.80;10.13;;;;;;;;;;6275154;22;20062;-87
2022/11/11 01:52:15;;;;;;;11.52;8.48;;;;;;;;;;6302659;22;20048;-86
2022/11/11 01:54:55;;;;;;;9.70;7.13;;;;;;;;;;6301077;22;20078;-87
2022/11/11 01:57:21;;;;;;;12.40;8.30;;;;;;;;;;6300952;22;20003;-87
2022/11/11 01:59:50;;;;;;;12.27;8.07;;;;;;;;;;6302110;22;19999;-86
2022/11/11 02:02:21;;;;;;;10.60;8.30;;;;;;;;;;6302563;22;19996;-87
2022/11/11 02:07:34;;;;;;;10.10;8.30;;;;;;;;;;6301017;22;20011;-88
2022/11/11 02:10:01;;;;;;;9.82;8.13;;;;;;;;;;6301611;22;20003;-87
2022/11/11 02:15:12;;;;;;;12.02;8.18;;;;;;;;;;6301831;22;20046;-87
2022/11/11 02:17:38;;;;;;;10.75;8.43;;;;;;;;;;6300813;22;20056;-88
2022/11/11 02:20:05;;;;;;;13.45;9.63;;;;;;;;;;6274044;22;20387;-87
2022/11/11 02:22:49;;;;;;;10.43;8.57;;;;;;;;;;6300818;22;19996;-87
2022/11/11 02:25:18;;;;;;;11.93;7.75;;;;;;;;;;6302474;22;20025;-87
2022/11/11 02:27:48;;;;;;;8.82;7.90;;;;;;;;;;6275074;22;20086;-87
2022/11/11 02:30:15;;;;;;;12.20;8.05;;;;;;;;;;6274893;22;20011;-87
2022/11/11 02:32:42;;;;;;;13.40;7.43;;;;;;;;;;6300681;22;20019;-87
2022/11/11 02:35:16;;;;;;;10.48;7.55;;;;;;;;;;6301322;22;20010;-87
2022/11/11 02:37:44;;;;;;;10.00;7.15;;;;;;;;;;6275037;22;20007;-87
2022/11/11 02:40:11;;;;;;;10.50;8.18;;;;;;;;;;6301223;22;20386;-86
2022/11/11 02:42:37;;;;;;;11.35;7.70;;;;;;;;;;6300862;22;19999;-89
2022/11/11 02:45:04;;;;;;;10.05;7.65;;;;;;;;;;6301252;22;20075;-87
2022/11/11 02:47:30;;;;;;;8.63;7.45;;;;;;;;;;6300698;22;19995;-87
2022/11/11 02:49:56;;;;;;;11.85;8.75;;;;;;;;;;6275289;22;20007;-87
2022/11/11 02:52:22;;;;;;;10.75;8.00;;;;;;;;;;6275426;22;20439;-88
2022/11/11 02:54:48;;;;;;;10.55;7.65;;;;;;;;;;6302943;22;20014;-87
2022/11/11 02:57:14;;;;;;;9.60;7.78;;;;;;;;;;6304284;22;19995;-87
2022/11/11 02:59:41;;;;;;;9.40;7.68;;;;;;;;;;6302541;22;20041;-88
2022/11/11 03:02:07;;;;;;;10.68;8.10;;;;;;;;;;6303000;22;20198;-88
2022/11/11 03:04:34;;;;;;;9.30;7.45;;;;;;;;;;6275234;22;20004;-88
2022/11/11 03:07:00;;;;;;;11.70;7.65;;;;;;;;;;6302957;22;20317;-88
2022/11/11 03:09:26;;;;;;;17.63;7.40;;;;;;;;;;6275312;22;20010;-88
2022/11/11 03:11:52;;;;;;;12.73;6.97;;;;;;;;;;6275348;22;20448;-88
2022/11/11 03:14:18;;;;;;;21.13;7.30;;;;;;;;;;6302390;22;20011;-87
2022/11/11 03:19:29;;;;;;;22.33;7.65;;;;;;;;;;6302524;22;20064;-87
2022/11/11 03:21:55;;;;;;;8.52;6.50;;;;;;;;;;6302758;22;19999;-86
2022/11/11 03:24:21;;;;;;;7.82;6.50;;;;;;;;;;6275006;22;20014;-86
2022/11/11 03:26:47;;;;;;;12.00;7.30;;;;;;;;;;6302756;22;20034;-85
2022/11/11 03:29:13;;;;;;;23.60;6.85;;;;;;;;;;6303874;22;19999;-86
2022/11/11 03:31:39;;;;;;;25.27;7.78;;;;;;;;;;6302267;22;20022;-86
2022/11/11 03:34:17;;;;;;;90.68;8.98;;;;;;;;;;6302615;22;20034;-86
2022/11/11 03:39:29;;;;;;;12.13;6.30;;;;;;;;;;6302107;22;20014;-86
2022/11/11 03:41:56;;;;;;;8.20;6.30;;;;;;;;;;6302695;22;20010;-87
2022/11/11 03:44:22;;;;;;;9.30;6.88;;;;;;;;;;6302325;22;19999;-86
2022/11/11 03:46:48;;;;;;;10.13;6.35;;;;;;;;;;6302527;22;20027;-86
2022/11/11 03:49:14;;;;;;;7.82;5.95;;;;;;;;;;6303555;22;20010;-86
2022/11/11 03:51:40;;;;;;;10.73;6.68;;;;;;;;;;6301970;22;20006;-87
2022/11/11 03:54:06;;;;;;;15.05;6.70;;;;;;;;;;6274667;22;20478;-86
2022/11/11 03:56:32;;;;;;;16.92;6.38;;;;;;;;;;6302298;22;20003;-86
2022/11/11 03:58:58;;;;;;;10.55;5.72;;;;;;;;;;6274876;22;20007;-86
2022/11/11 04:12:28;;;;;;;33.75;5.28;;;;;;;;;;6301719;22;20018;-87
2022/11/11 04:17:38;;;;;;;7.72;4.82;;;;;;;;;;6301864;22;20482;-86
2022/11/11 04:22:52;;;;;;;25.80;5.10;;;;;;;;;;6302100;22;20458;-87
2022/11/11 04:30:49;;;;;;;17.98;4.70;;;;;;;;;;6254808;22;20004;-87
2022/11/11 04:33:15;;;;;;;9.48;4.32;;;;;;;;;;6303047;22;20011;-87
2022/11/11 04:35:41;;;;;;;9.18;4.60;;;;;;;;;;6274209;22;20056;-86
2022/11/11 04:41:05;;;;;;;6.57;4.70;;;;;;;;;;6301945;22;20359;-87
2022/11/11 04:43:31;;;;;;;6.95;4.60;;;;;;;;;;6301745;22;19995;-86
2022/11/11 04:46:00;;;;;;;7.72;4.95;;;;;;;;;;6274547;22;20007;-86
2022/11/11 04:48:27;;;;;;;12.52;4.63;;;;;;;;;;6301876;22;19999;-87
2022/11/11 04:50:53;;;;;;;23.08;4.70;;;;;;;;;;6301992;22;20056;-87
2022/11/11 04:53:19;;;;;;;16.95;4.47;;;;;;;;;;6301442;22;20013;-85
2022/11/11 04:58:31;;;;;;;5.75;4.47;;;;;;;;;;6302352;22;20018;-87
2022/11/11 05:00:57;;;;;;;5.25;4.20;;;;;;;;;;6302597;22;20029;-86
2022/11/11 05:03:23;;;;;;;29.45;4.95;;;;;;;;;;6302409;22;20049;-87
2022/11/11 05:09:08;;;;;;;16.00;4.65;;;11.60;99.90;;;;;;6303771;22;20413;-93
2022/11/11 05:11:36;;;;;;;17.13;4.20;;;10.80;99.90;;;;;;6303946;22;19995;-91
2022/11/11 05:22:21;;;;;;;16.80;4.32;;;;;;;;;;6306773;22;20056;-93
2022/11/11 05:27:32;;;;;;;8.82;3.92;;;;;;;;;;6322983;22;20042;-91
2022/11/11 05:29:58;;;;;;;17.92;4.13;;;;;;;;;;6323277;22;20013;-91
2022/11/11 05:32:24;;;;;;;10.23;3.70;;;;;;;;;;6324122;22;20011;-89
2022/11/11 05:34:51;;;;;;;5.45;3.65;;;;;;;;;;6311740;22;20007;-91
2022/11/11 05:37:17;;;;;;;4.88;3.28;;;;;;;;;;6315921;22;19995;-90
2022/11/11 05:39:43;;;;;;;9.20;3.90;;;;;;;;;;6284837;22;20060;-90
2022/11/11 05:42:10;;;;;;;9.13;3.88;;;;;;;;;;6277019;22;20232;-91
2022/11/11 05:44:36;;;;;;;9.45;3.97;;;;;;;;;;6275084;22;20390;-92
2022/11/11 05:47:04;;;;;;;8.05;3.83;;;13.60;99.90;;;;;;6277084;22;20007;-91
2022/11/11 05:49:30;;;;;;;13.43;4.80;;;;;;;;;;6303996;22;19999;-91
2022/11/11 05:51:58;;;;;;;7.22;4.10;;;10.50;99.90;;;;;;6302167;22;20006;-91
2022/11/11 05:54:24;;;;;;;6.82;4.10;;;;;;;;;;6302616;22;20014;-91
2022/11/11 05:56:50;;;;;;;15.38;4.40;;;;;;;;;;6275295;22;20073;-92
2022/11/11 05:59:17;;;;;;;5.68;3.97;;;;;;;;;;6270663;22;20337;-92
2022/11/11 06:01:43;;;;;;;10.60;4.13;;;;;;;;;;6301247;22;19999;-90
2022/11/11 06:04:09;;;;;;;7.25;3.78;;;;;;;;;;6274312;22;20095;-92
2022/11/11 06:06:35;;;;;;;8.38;4.10;;;;;;;;;;6274098;22;20014;-91
2022/11/11 06:09:02;;;;;;;14.90;3.88;;;;;;;;;;6273240;22;20085;-93
2022/11/11 06:11:28;;;;;;;10.98;4.10;;;;;;;;;;6299764;22;20024;-90
2022/11/11 06:13:54;;;;;;;5.90;3.80;;;;;;;;;;6299915;22;20060;-91
2022/11/11 06:16:21;;;;;;;8.40;3.90;;;;;;;;;;6302025;22;19995;-92
2022/11/11 06:18:47;;;;;;;14.23;4.10;;;;;;;;;;6302449;22;20079;-90
2022/11/11 06:21:13;;;;;;;10.05;4.05;;;;;;;;;;6300177;22;20041;-91
2022/11/11 06:23:39;;;;;;;9.10;4.38;;;;;;;;;;6274214;22;20012;-91
2022/11/11 06:26:11;;;;;;;19.42;4.68;;;;;;;;;;6275224;22;20032;-90
2022/11/11 06:28:56;;;;;;;7.38;4.25;;;10.40;99.90;;;;;;6303324;22;20479;-89
2022/11/11 06:31:24;;;;;;;7.53;4.30;;;10.40;99.90;;;;;;6267395;22;20091;-89
2022/11/11 06:33:50;;;;;;;4.13;3.70;;;;;;;;;;6304491;22;20011;-91
2022/11/11 06:36:19;;;;;;;6.63;4.18;;;10.40;99.90;;;;;;6304129;22;20423;-91
2022/11/11 06:38:45;;;;;;;28.85;5.38;;;;;;;;;;6303573;22;20078;-90
2022/11/11 06:41:12;;;;;;;8.38;4.20;;;10.40;99.90;;;;;;6303818;22;20383;-90
2022/11/11 06:43:39;;;;;;;6.07;4.47;;;;;;;;;;6303899;22;20000;-93
2022/11/11 06:46:05;;;;;;;6.43;4.35;;;;;;;;;;6303942;22;20614;-91
2022/11/11 06:48:31;;;;;;;9.13;4.57;;;;;;;;;;6303954;22;20083;-92
2022/11/11 06:51:05;;;;;;;16.55;5.03;;;10.50;99.90;;;;;;6303691;22;20007;-90
2022/11/11 06:53:35;;;;;;;14.10;5.05;;;;;;;;;;6304230;22;20003;-92
2022/11/11 06:56:06;;;;;;;17.58;4.68;;;10.50;99.90;;;;;;6280120;22;20010;-93
2022/11/11 06:58:34;;;;;;;9.95;3.97;;;;;;;;;;6286145;22;19999;-94
2022/11/11 07:01:03;;;;;;;15.65;3.70;;;10.40;99.90;;;;;;6285934;22;20003;-90
2022/11/11 07:03:48;;;;;;;9.30;4.10;;;10.40;99.90;;;;;;6311345;22;19999;-91
2022/11/11 07:06:14;;;;;;;12.45;4.43;;;;;;;;;;6309250;22;20066;-93
2022/11/11 07:08:43;;;;;;;6.93;4.68;;;;;;;;;;6280985;22;20014;-91
2022/11/11 07:11:10;;;;;;;8.00;4.55;;;;;;;;;;6305903;22;20094;-92
2022/11/11 07:13:36;;;;;;;16.23;4.40;;;;;;;;;;6303977;22;20455;-91
2022/11/11 07:16:02;;;;;;;8.82;4.80;;;;;;;;;;6304747;22;19999;-91
2022/11/11 07:18:28;;;;;;;14.15;4.65;;;;;;;;;;6305714;22;20014;-92
2022/11/11 07:20:54;;;;;;;5.20;4.40;;;;;;;;;;6277716;22;20039;-92
2022/11/11 07:23:20;;;;;;;10.32;5.00;;;;;;;;;;6304619;22;19999;-92
2022/11/11 07:25:46;;;;;;;14.77;5.20;;;;;;;;;;6304105;22;20003;-93
2022/11/11 07:28:12;;;;;;;8.55;5.55;;;;;;;;;;6278350;22;20038;-92
2022/11/11 07:30:49;;;;;;;7.45;5.38;;;10.30;99.90;;;;;;6311388;22;20068;-96
2022/11/11 07:33:15;;;;;;;7.23;5.17;;;;;;;;;;6296873;22;20552;-94
2022/11/11 07:35:44;;;;;;;7.13;5.45;;;;;;;;;;6306407;22;20031;-93
2022/11/11 07:38:10;;;;;;;11.00;5.40;;;;;;;;;;6305455;22;19999;-92
2022/11/11 07:40:36;;;;;;;7.35;5.20;;;;;;;;;;6307393;22;20007;-90
2022/11/11 07:43:02;;;;;;;15.18;5.38;;;;;;;;;;6303030;22;20003;-92
2022/11/11 07:45:28;;;;;;;13.18;5.03;;;;;;;;;;6302789;22;20313;-92
2022/11/11 07:47:55;;;;;;;26.83;5.55;;;;;;;;;;6305114;22;20010;-89
2022/11/11 07:50:21;;;;;;;15.15;5.32;;;;;;;;;;6307642;22;19995;-86
